Time;durP1;ratioP1;P1;durP2;ratioP2;P2;SDS_P1;SDS_P2;PMS_P1;PMS_P2;Temp;Humidity;BMP_temperature;BMP_pressure;BME280_temperature;BME280_humidity;BME280_pressure;Samples;Min_cycle;Max_cycle;Signal;HPM_P1;HPM_P2
2021/12/22 00:00:39;;;;;;;28.27;16.17;;;-1.40;99.90;;;;;;5076080;28;20044;-67
2021/12/22 00:03:07;;;;;;;27.48;14.68;;;-1.40;99.90;;;;;;5082372;28;20093;-66
2021/12/22 00:05:37;;;;;;;33.75;15.07;;;-1.40;99.90;;;;;;5090866;28;20055;-67
2021/12/22 00:08:03;;;;;;;32.35;15.18;;;-1.40;99.90;;;;;;5080371;28;20380;-67
2021/12/22 00:10:28;;;;;;;28.10;14.77;;;-1.40;99.90;;;;;;5077328;28;20071;-67
2021/12/22 00:12:54;;;;;;;27.52;15.55;;;-1.40;99.90;;;;;;5084957;28;20039;-66
2021/12/22 00:15:20;;;;;;;32.03;15.55;;;-1.50;99.90;;;;;;5089575;28;20125;-66
2021/12/22 00:17:46;;;;;;;32.00;14.90;;;-1.40;99.90;;;;;;5083857;28;20049;-66
2021/12/22 00:20:14;;;;;;;28.17;15.43;;;-1.50;99.90;;;;;;5084695;28;20043;-66
2021/12/22 00:22:39;;;;;;;27.27;15.43;;;-1.50;99.90;;;;;;5085742;28;20062;-66
2021/12/22 00:25:06;;;;;;;27.05;14.90;;;-1.50;99.90;;;;;;5079017;28;20032;-66
2021/12/22 00:27:31;;;;;;;24.45;14.77;;;-1.60;99.90;;;;;;5086954;28;20043;-67
2021/12/22 00:29:57;;;;;;;25.58;15.13;;;-1.60;99.90;;;;;;5087126;28;20040;-65
2021/12/22 00:32:25;;;;;;;34.38;15.82;;;-1.60;99.90;;;;;;5088723;28;20032;-66
2021/12/22 00:34:53;;;;;;;24.05;14.10;;;-1.60;99.90;;;;;;5073468;28;20045;-66
2021/12/22 00:37:21;;;;;;;;;;;-1.60;99.90;;;;;;5071881;28;20525;-67
2021/12/22 00:39:47;;;;;;;28.20;15.77;;;-1.60;99.90;;;;;;5076292;28;19920;-66
2021/12/22 00:42:14;;;;;;;27.98;15.63;;;-1.60;99.90;;;;;;5072134;28;20051;-67
2021/12/22 00:44:41;;;;;;;29.10;15.18;;;-1.60;99.90;;;;;;5079569;28;20049;-67
2021/12/22 00:47:08;;;;;;;30.25;16.08;;;-1.70;99.90;;;;;;5054591;28;20033;-66
2021/12/22 00:49:34;;;;;;;26.88;15.80;;;-1.70;99.90;;;;;;5071109;28;20045;-65
2021/12/22 00:52:00;;;;;;;26.38;15.90;;;-1.70;99.90;;;;;;5075930;28;20094;-67
2021/12/22 00:54:26;;;;;;;38.08;16.77;;;-1.70;99.90;;;;;;5077124;28;20040;-67
2021/12/22 00:57:01;;;;;;;31.95;16.48;;;-1.70;99.90;;;;;;5068814;28;20050;-67
2021/12/22 00:59:27;;;;;;;30.15;15.25;;;-1.80;99.90;;;;;;5083350;28;20048;-67
2021/12/22 01:01:53;;;;;;;29.88;15.48;;;-1.80;99.90;;;;;;5084430;28;20084;-67
2021/12/22 01:04:18;;;;;;;31.65;16.67;;;-1.80;99.90;;;;;;5074986;28;20115;-66
2021/12/22 01:06:45;;;;;;;35.05;16.50;;;-1.80;99.90;;;;;;5078963;28;20186;-66
2021/12/22 01:09:11;;;;;;;29.58;15.07;;;-1.80;99.90;;;;;;5085038;28;20489;-66
2021/12/22 01:11:36;;;;;;;28.38;15.70;;;-1.80;99.90;;;;;;5084670;28;20058;-67
2021/12/22 01:14:03;;;;;;;27.30;15.95;;;-1.80;99.90;;;;;;5082484;28;20101;-67
2021/12/22 01:16:29;;;;;;;32.08;15.48;;;-1.90;99.90;;;;;;5074155;28;20059;-67
2021/12/22 01:18:57;;;;;;;28.13;16.02;;;-1.90;99.90;;;;;;5083397;28;20059;-66
2021/12/22 01:21:37;;;;;;;32.70;16.55;;;-1.90;99.90;;;;;;5087068;28;20855;-67
2021/12/22 01:24:14;;;;;;;;;;;-1.90;99.90;;;;;;5074104;28;20059;-67
2021/12/22 01:26:45;;;;;;;31.20;15.73;;;-2.00;99.90;;;;;;5078296;28;19920;-67
2021/12/22 01:29:12;;;;;;;29.35;15.02;;;-2.00;99.90;;;;;;5083330;28;20048;-65
2021/12/22 01:31:40;;;;;;;31.13;16.42;;;-2.00;99.90;;;;;;5078567;28;20032;-67
2021/12/22 01:34:06;;;;;;;33.05;16.73;;;-2.00;99.90;;;;;;5074088;28;20056;-66
2021/12/22 01:36:32;;;;;;;29.30;16.08;;;-2.00;99.90;;;;;;5079184;28;20050;-66
2021/12/22 01:38:57;;;;;;;30.58;17.30;;;-2.00;99.90;;;;;;5068937;28;20143;-66
2021/12/22 01:41:23;;;;;;;28.85;16.30;;;-2.00;99.90;;;;;;5077675;28;20052;-66
2021/12/22 01:43:49;;;;;;;36.63;17.40;;;-2.10;99.90;;;;;;5076493;28;20450;-66
2021/12/22 01:49:09;;;;;;;31.08;16.77;;;-2.10;99.90;;;;;;5085997;28;20123;-67
2021/12/22 01:49:49;;;;;;;28.02;16.13;;;-2.00;99.90;;;;;;5089924;28;20041;-68
2021/12/22 01:52:15;;;;;;;28.65;15.15;;;-2.10;99.90;;;;;;5084507;28;20043;-66
2021/12/22 01:54:49;;;;;;;29.52;15.57;;;-2.10;99.90;;;;;;5089544;28;20374;-65
2021/12/22 01:57:16;;;;;;;28.77;15.82;;;-2.10;99.90;;;;;;5086858;28;20036;-66
2021/12/22 01:59:44;;;;;;;31.38;16.35;;;-2.10;99.90;;;;;;5086304;28;20460;-66
2021/12/22 02:02:11;;;;;;;28.48;16.58;;;-2.20;99.90;;;;;;5075177;28;20368;-66
2021/12/22 02:04:38;;;;;;;34.17;16.77;;;-2.20;99.90;;;;;;5076027;28;20048;-65
2021/12/22 02:07:05;;;;;;;30.83;16.60;;;-1.50;99.90;;;;;;5071152;28;20076;-66
2021/12/22 02:12:02;;;;;;;27.98;16.63;;;-2.20;99.90;;;;;;5087275;28;20048;-66
2021/12/22 02:14:28;;;;;;;29.67;16.50;;;-2.20;99.90;;;;;;5087791;28;20086;-67
2021/12/22 02:16:53;;;;;;;33.03;15.90;;;-2.20;99.90;;;;;;5075522;28;20041;-66
2021/12/22 02:19:19;;;;;;;29.40;16.00;;;-2.20;99.90;;;;;;5077785;28;20461;-66
2021/12/22 02:21:51;;;;;;;28.92;15.40;;;-2.20;99.90;;;;;;5076153;28;20036;-67
2021/12/22 02:24:17;;;;;;;27.10;16.05;;;-2.20;99.90;;;;;;5092564;28;20402;-67
2021/12/22 02:26:52;;;;;;;34.33;16.33;;;-2.20;99.90;;;;;;5088609;28;20055;-67
2021/12/22 02:29:23;;;;;;;31.75;15.77;;;-2.20;99.90;;;;;;5075570;28;20344;-67
2021/12/22 02:32:06;;;;;;;41.97;17.65;;;-2.30;99.90;;;;;;5082900;28;20048;-66
2021/12/22 02:34:42;;;;;;;29.17;16.20;;;-1.60;99.90;;;;;;5086298;28;20048;-66
2021/12/22 02:37:14;;;;;;;32.40;17.42;;;-2.30;99.90;;;;;;5084199;28;20086;-66
2021/12/22 02:39:57;;;;;;;26.30;16.48;;;-2.30;99.90;;;;;;5082584;28;20040;-66
2021/12/22 02:42:25;;;;;;;28.63;16.60;;;-2.30;99.90;;;;;;5087449;28;20532;-67
2021/12/22 02:44:51;;;;;;;30.75;16.75;;;-2.30;99.90;;;;;;5091115;28;20048;-66
2021/12/22 02:47:28;;;;;;;31.75;17.08;;;-2.30;99.90;;;;;;5072539;28;20048;-67
2021/12/22 02:49:53;;;;;;;30.02;17.55;;;-2.40;99.90;;;;;;5082346;28;20044;-67
2021/12/22 02:52:19;;;;;;;27.42;16.60;;;-2.40;99.90;;;;;;5079372;28;20110;-66
2021/12/22 02:54:54;;;;;;;28.63;16.33;;;-2.40;99.90;;;;;;5091845;28;20120;-66
2021/12/22 02:57:29;;;;;;;33.95;17.50;;;-2.40;99.90;;;;;;5082915;28;20524;-66
2021/12/22 03:05:11;;;;;;;28.65;15.95;;;-2.40;99.90;;;;;;5086558;28;20049;-66
2021/12/22 03:07:38;;;;;;;28.60;16.58;;;-2.40;99.90;;;;;;5081909;28;20189;-67
2021/12/22 03:10:12;;;;;;;29.63;16.13;;;-2.50;99.90;;;;;;5088404;28;20098;-67
2021/12/22 03:12:39;;;;;;;38.58;16.67;;;-2.50;99.90;;;;;;5058597;28;20067;-67
2021/12/22 03:15:08;;;;;;;28.58;16.77;;;-2.50;99.90;;;;;;5102672;28;20040;-66
2021/12/22 03:17:35;;;;;;;30.98;16.73;;;-2.50;99.90;;;;;;5073981;28;20056;-66
2021/12/22 03:20:02;;;;;;;35.53;15.77;;;-2.20;99.90;;;;;;5084428;28;20044;-68
2021/12/22 03:22:27;;;;;;;28.73;16.58;;;-2.50;99.90;;;;;;5072665;28;20048;-66
2021/12/22 03:24:53;;;;;;;33.05;15.68;;;-2.50;99.90;;;;;;5082584;28;20040;-67
2021/12/22 03:27:20;;;;;;;36.60;15.98;;;-2.50;99.90;;;;;;5075814;28;20428;-66
2021/12/22 03:29:46;;;;;;;28.25;15.95;;;-2.50;99.90;;;;;;5082487;28;20051;-67
2021/12/22 03:32:12;;;;;;;31.15;16.27;;;-2.60;99.90;;;;;;5088339;28;20105;-67
2021/12/22 03:34:41;;;;;;;35.20;15.98;;;-2.50;99.90;;;;;;5076771;28;20040;-66
2021/12/22 03:37:08;;;;;;;35.28;15.57;;;-2.50;99.90;;;;;;5076649;28;20097;-67
2021/12/22 03:39:35;;;;;;;36.50;16.90;;;-2.60;99.90;;;;;;5080470;28;20503;-66
2021/12/22 03:42:01;;;;;;;30.73;15.10;;;-2.60;99.90;;;;;;5080461;28;20048;-67
2021/12/22 03:44:27;;;;;;;31.40;16.20;;;-2.60;99.90;;;;;;5084762;28;20094;-66
2021/12/22 03:46:52;;;;;;;32.13;16.42;;;-2.60;99.90;;;;;;5081619;28;20143;-66
2021/12/22 03:49:18;;;;;;;29.65;15.20;;;-2.60;99.90;;;;;;5080805;28;20036;-66
2021/12/22 03:51:45;;;;;;;31.30;15.57;;;-2.60;99.90;;;;;;5093486;28;20033;-66
2021/12/22 03:54:12;;;;;;;34.03;16.35;;;-2.60;99.90;;;;;;5079917;28;20074;-66
2021/12/22 03:56:37;;;;;;;30.50;16.13;;;-2.60;99.90;;;;;;5072627;28;20059;-66
2021/12/22 03:59:04;;;;;;;27.85;15.43;;;-2.60;99.90;;;;;;5076209;28;20037;-66
2021/12/22 04:01:31;;;;;;;31.25;17.00;;;-2.60;99.90;;;;;;5083170;28;20052;-66
2021/12/22 04:04:01;;;;;;;29.83;15.32;;;-2.60;99.90;;;;;;5080936;28;20521;-66
2021/12/22 04:06:27;;;;;;;32.20;16.70;;;-2.70;99.90;;;;;;5081447;28;20079;-66
2021/12/22 04:08:53;;;;;;;30.08;16.38;;;-2.60;99.90;;;;;;5084521;28;20120;-67
2021/12/22 04:11:18;;;;;;;42.38;16.88;;;-2.70;99.90;;;;;;5087659;28;20094;-64
2021/12/22 04:13:44;;;;;;;29.75;16.20;;;-2.70;99.90;;;;;;5073945;28;20048;-66
2021/12/22 04:16:10;;;;;;;32.25;17.00;;;-2.70;99.90;;;;;;5076476;28;20044;-66
2021/12/22 04:18:35;;;;;;;30.88;16.83;;;-2.70;99.90;;;;;;5088000;28;20094;-65
2021/12/22 04:21:01;;;;;;;29.10;16.50;;;-2.70;99.90;;;;;;5078380;28;20101;-65
2021/12/22 04:23:27;;;;;;;32.17;17.48;;;-2.70;99.90;;;;;;5072415;28;20047;-66
2021/12/22 04:25:52;;;;;;;31.15;18.13;;;-2.70;99.90;;;;;;5073287;28;20121;-66
2021/12/22 04:28:18;;;;;;;38.47;18.58;;;-2.70;99.90;;;;;;5077801;28;20052;-66
2021/12/22 04:30:48;;;;;;;30.65;18.02;;;-2.70;99.90;;;;;;5081765;28;20051;-65
2021/12/22 04:33:15;;;;;;;32.42;16.63;;;-2.80;99.90;;;;;;5077168;28;20039;-66
2021/12/22 04:35:42;;;;;;;30.60;17.27;;;-2.70;99.90;;;;;;5083985;28;20035;-65
2021/12/22 04:38:07;;;;;;;30.27;17.50;;;-2.80;99.90;;;;;;5087103;28;20127;-67
2021/12/22 04:40:33;;;;;;;36.50;18.80;;;-2.80;99.90;;;;;;5081881;28;20170;-65
2021/12/22 04:42:59;;;;;;;30.45;15.90;;;-2.70;99.90;;;;;;5090650;28;20028;-65
2021/12/22 04:45:24;;;;;;;29.88;16.60;;;-2.80;99.90;;;;;;5083442;28;20045;-65
2021/12/22 04:47:51;;;;;;;30.58;16.75;;;-2.90;99.90;;;;;;5072982;28;20036;-65
2021/12/22 04:50:19;;;;;;;32.97;17.23;;;-2.80;99.90;;;;;;5082991;28;20041;-65
2021/12/22 04:52:58;;;;;;;35.33;17.85;;;-2.90;99.90;;;;;;5082319;28;20079;-66
2021/12/22 04:55:27;;;;;;;33.65;15.68;;;-2.90;99.90;;;;;;5079225;28;20119;-66
2021/12/22 04:57:56;;;;;;;34.38;15.63;;;-2.90;99.90;;;;;;5074079;28;20124;-66
2021/12/22 05:00:26;;;;;;;33.50;16.35;;;-2.90;99.90;;;;;;5077668;28;20437;-67
2021/12/22 05:02:53;;;;;;;32.70;15.95;;;-3.00;99.90;;;;;;5089935;28;20490;-66
2021/12/22 05:05:18;;;;;;;36.75;15.85;;;-2.90;99.90;;;;;;5076983;28;20088;-65
2021/12/22 05:07:47;;;;;;;34.80;16.85;;;-3.00;99.90;;;;;;5075324;28;20052;-66
2021/12/22 05:10:13;;;;;;;35.13;18.38;;;-3.00;99.90;;;;;;5078537;28;20541;-66
2021/12/22 05:12:39;;;;;;;28.33;14.90;;;-3.00;99.90;;;;;;5073154;28;20394;-66
2021/12/22 05:15:05;;;;;;;31.75;15.60;;;-3.50;99.90;;;;;;5074345;28;20045;-66
2021/12/22 05:20:11;;;;;;;32.53;15.45;;;-3.10;99.90;;;;;;5072547;28;20059;-65
2021/12/22 05:22:37;;;;;;;29.15;15.18;;;-3.10;99.90;;;;;;5079521;28;20048;-66
2021/12/22 05:25:05;;;;;;;34.15;15.07;;;-3.10;99.90;;;;;;5079497;28;20387;-67
2021/12/22 05:27:31;;;;;;;34.35;16.83;;;-3.10;99.90;;;;;;5086473;28;20148;-67
2021/12/22 05:29:58;;;;;;;28.77;14.98;;;-3.10;99.90;;;;;;5072103;28;20048;-68
2021/12/22 05:32:30;;;;;;;30.85;15.57;;;-3.10;99.90;;;;;;5059991;28;20044;-66
2021/12/22 05:34:55;;;;;;;30.35;16.35;;;-3.10;99.90;;;;;;5074481;28;20139;-65
2021/12/22 05:37:21;;;;;;;29.52;16.02;;;-3.10;99.90;;;;;;5075213;28;20468;-66
2021/12/22 05:39:47;;;;;;;30.35;15.50;;;-3.10;99.90;;;;;;5081924;28;20052;-66
2021/12/22 05:42:12;;;;;;;26.90;15.63;;;-3.10;99.90;;;;;;5077525;28;20036;-66
2021/12/22 05:44:38;;;;;;;30.58;13.98;;;-3.10;99.90;;;;;;5082307;28;20044;-66
2021/12/22 05:47:04;;;;;;;27.08;15.18;;;-3.10;99.90;;;;;;5086824;28;20056;-65
2021/12/22 05:49:29;;;;;;;32.50;15.00;;;-3.10;99.90;;;;;;5086412;28;20037;-65
2021/12/22 05:51:55;;;;;;;25.90;15.50;;;-3.10;99.90;;;;;;5079650;28;20040;-65
2021/12/22 05:54:21;;;;;;;32.97;16.30;;;-3.10;99.90;;;;;;5072333;28;20123;-65
2021/12/22 05:56:46;;;;;;;30.20;17.35;;;-3.20;99.90;;;;;;5088385;28;20032;-66
2021/12/22 05:59:12;;;;;;;32.35;17.08;;;-3.20;99.90;;;;;;5089071;28;20139;-66
2021/12/22 06:01:37;;;;;;;32.85;17.25;;;-3.10;99.90;;;;;;5079132;28;20032;-66
2021/12/22 06:04:03;;;;;;;26.95;15.15;;;-3.20;99.90;;;;;;5076176;28;20040;-66
2021/12/22 06:06:30;;;;;;;29.00;15.93;;;-3.20;99.90;;;;;;5078977;28;20039;-66
2021/12/22 06:08:56;;;;;;;33.22;16.30;;;-3.20;99.90;;;;;;5078414;28;20036;-66
2021/12/22 06:11:22;;;;;;;30.70;16.42;;;-3.20;99.90;;;;;;5078962;28;20117;-67
2021/12/22 06:13:47;;;;;;;31.75;16.73;;;-3.20;99.90;;;;;;5082203;28;20518;-65
2021/12/22 06:16:13;;;;;;;25.75;15.93;;;-3.20;99.90;;;;;;5077935;28;20439;-65
2021/12/22 06:18:44;;;;;;;31.95;15.50;;;-3.20;99.90;;;;;;5063061;28;20379;-65
2021/12/22 06:21:12;;;;;;;32.42;16.42;;;-3.30;99.90;;;;;;5084850;28;20037;-66
2021/12/22 06:23:38;;;;;;;35.80;17.38;;;-3.20;99.90;;;;;;5093573;28;20189;-66
2021/12/22 06:26:05;;;;;;;37.22;17.75;;;-3.20;99.90;;;;;;5089388;28;20048;-65
2021/12/22 06:28:30;;;;;;;31.08;16.55;;;-3.30;99.90;;;;;;5083916;28;20142;-65
2021/12/22 06:30:56;;;;;;;31.83;16.05;;;-3.20;99.90;;;;;;5082311;28;20032;-66
2021/12/22 06:33:22;;;;;;;36.83;16.67;;;-3.30;99.90;;;;;;5083694;28;20475;-66
2021/12/22 06:35:48;;;;;;;31.45;15.20;;;-3.30;99.90;;;;;;5063415;28;20543;-66
2021/12/22 06:38:15;;;;;;;33.53;17.20;;;-3.20;99.90;;;;;;5079760;28;20413;-65
2021/12/22 06:40:42;;;;;;;35.20;16.05;;;-3.20;99.90;;;;;;5084114;28;20115;-67
2021/12/22 06:43:07;;;;;;;35.05;16.65;;;-3.30;99.90;;;;;;5066548;28;20101;-66
2021/12/22 06:45:33;;;;;;;36.47;16.48;;;-3.20;99.90;;;;;;5080815;28;20044;-66
2021/12/22 06:47:59;;;;;;;30.88;16.50;;;-3.30;99.90;;;;;;5079160;28;20047;-65
2021/12/22 06:50:25;;;;;;;30.35;15.38;;;-3.20;99.90;;;;;;5081775;28;20055;-66
2021/12/22 06:52:50;;;;;;;31.48;16.42;;;-3.30;99.90;;;;;;5082921;28;20059;-66
2021/12/22 06:55:16;;;;;;;42.08;16.80;;;-3.30;99.90;;;;;;5083251;28;20075;-66
2021/12/22 06:57:42;;;;;;;33.70;16.35;;;-3.30;99.90;;;;;;5079868;28;20040;-64
2021/12/22 07:00:10;;;;;;;35.53;16.25;;;-3.30;99.90;;;;;;5082854;28;20056;-65
2021/12/22 07:02:37;;;;;;;31.38;15.55;;;-3.30;99.90;;;;;;5086064;28;20048;-66
2021/12/22 07:05:10;;;;;;;37.33;15.10;;;-3.30;99.90;;;;;;5081633;28;20097;-66
2021/12/22 07:07:36;;;;;;;34.65;16.63;;;-3.30;99.90;;;;;;5086486;28;20494;-67
2021/12/22 07:10:07;;;;;;;43.03;15.93;;;-3.30;99.90;;;;;;5093139;28;20051;-67
2021/12/22 07:12:37;;;;;;;41.97;16.77;;;-3.30;99.90;;;;;;5088328;28;20123;-67
2021/12/22 07:15:04;;;;;;;36.95;16.73;;;-3.30;99.90;;;;;;5077853;28;20067;-66
2021/12/22 07:17:30;;;;;;;35.80;16.17;;;-3.30;99.90;;;;;;5076306;28;20534;-68
2021/12/22 07:19:55;;;;;;;34.97;16.00;;;-3.30;99.90;;;;;;5078422;28;20083;-66
2021/12/22 07:22:21;;;;;;;35.13;16.45;;;-3.30;99.90;;;;;;5087266;28;20052;-65
2021/12/22 07:24:46;;;;;;;34.60;16.05;;;-3.30;99.90;;;;;;5073108;28;20048;-65
2021/12/22 07:27:12;;;;;;;31.27;15.68;;;-3.30;99.90;;;;;;5083396;28;20527;-66
2021/12/22 07:29:38;;;;;;;36.97;15.85;;;-3.30;99.90;;;;;;5085753;28;20449;-66
2021/12/22 07:32:04;;;;;;;35.95;16.05;;;-3.30;99.90;;;;;;5078903;28;20266;-66
2021/12/22 07:34:56;;;;;;;32.83;14.90;;;-3.30;99.90;;;;;;5081348;28;20041;-67
2021/12/22 07:37:21;;;;;;;36.85;15.13;;;-3.30;99.90;;;;;;5065296;28;20482;-65
2021/12/22 07:39:47;;;;;;;33.88;15.65;;;-3.30;99.90;;;;;;5083878;28;20067;-65
2021/12/22 07:42:13;;;;;;;30.17;15.20;;;-3.20;99.90;;;;;;5075058;28;20433;-66
2021/12/22 07:44:39;;;;;;;35.38;17.45;;;-3.20;99.90;;;;;;5081474;28;20039;-65
2021/12/22 07:47:04;;;;;;;38.15;16.58;;;-3.20;99.90;;;;;;5083680;28;20093;-66
2021/12/22 07:49:30;;;;;;;36.65;15.38;;;-3.20;99.90;;;;;;5074516;28;20037;-66
2021/12/22 07:51:56;;;;;;;34.58;15.82;;;-3.10;99.90;;;;;;5089061;28;20052;-65
2021/12/22 07:54:21;;;;;;;35.70;15.45;;;-2.30;99.90;;;;;;5085090;28;20127;-64
2021/12/22 07:56:47;;;;;;;35.67;15.70;;;-3.20;99.90;;;;;;5082457;28;20552;-67
2021/12/22 07:59:12;;;;;;;33.30;16.15;;;-3.10;99.90;;;;;;5086898;28;20108;-66
2021/12/22 08:01:38;;;;;;;31.90;14.38;;;-3.10;99.90;;;;;;5090446;28;20517;-65
2021/12/22 08:04:04;;;;;;;31.92;15.00;;;-3.10;99.90;;;;;;5078079;28;20047;-66
2021/12/22 08:06:29;;;;;;;41.40;15.07;;;-3.10;99.90;;;;;;5084245;28;20040;-66
2021/12/22 08:08:55;;;;;;;29.63;14.65;;;-3.00;99.90;;;;;;5079081;28;20044;-66
2021/12/22 08:11:21;;;;;;;37.67;15.63;;;-3.00;99.90;;;;;;5079245;28;20546;-65
2021/12/22 08:13:46;;;;;;;30.55;14.20;;;-3.00;99.90;;;;;;5079397;28;20048;-67
2021/12/22 08:16:12;;;;;;;34.05;15.13;;;-1.60;99.90;;;;;;5083529;28;20036;-67
2021/12/22 08:18:38;;;;;;;26.25;13.13;;;-2.90;99.90;;;;;;5084759;28;20485;-65
2021/12/22 08:21:03;;;;;;;33.22;13.75;;;-2.90;99.90;;;;;;5081467;28;20047;-65
2021/12/22 08:23:29;;;;;;;33.05;12.60;;;-2.80;99.90;;;;;;5079699;28;20078;-66
2021/12/22 08:25:56;;;;;;;27.13;13.73;;;-2.80;99.90;;;;;;5085987;28;20424;-66
2021/12/22 08:28:21;;;;;;;25.75;13.82;;;-2.30;99.90;;;;;;5076945;28;20497;-65
2021/12/22 08:30:47;;;;;;;26.63;14.13;;;-2.70;99.90;;;;;;5079369;28;20043;-66
2021/12/22 08:33:26;;;;;;;27.10;13.77;;;-2.60;99.90;;;;;;5088562;28;20489;-65
2021/12/22 08:38:51;;;;;;;31.23;13.63;;;-2.50;99.90;;;;;;5089806;28;20040;-66
2021/12/22 08:41:23;;;;;;;26.48;13.85;;;-2.50;99.90;;;;;;5081492;28;20415;-64
2021/12/22 08:43:50;;;;;;;29.95;14.07;;;-2.40;99.90;;;;;;5083048;28;20036;-67
2021/12/22 08:46:16;;;;;;;29.33;14.18;;;-2.30;99.90;;;;;;5085154;28;20131;-64
2021/12/22 08:48:42;;;;;;;27.38;13.77;;;-2.10;99.90;;;;;;5091235;28;20105;-66
2021/12/22 08:51:09;;;;;;;30.88;15.75;;;-2.20;99.90;;;;;;5075885;28;20044;-65
2021/12/22 08:53:35;;;;;;;29.85;14.18;;;-2.10;99.90;;;;;;5084317;28;20040;-66
2021/12/22 08:56:00;;;;;;;27.50;14.20;;;-2.10;99.90;;;;;;5084913;28;20119;-66
2021/12/22 08:58:26;;;;;;;28.65;14.05;;;-2.00;99.90;;;;;;5078137;28;20070;-65
2021/12/22 09:00:52;;;;;;;27.50;14.45;;;-2.00;99.90;;;;;;5086637;28;20122;-65
2021/12/22 09:03:17;;;;;;;31.45;14.63;;;-2.00;99.90;;;;;;5084614;28;20067;-65
2021/12/22 09:05:43;;;;;;;25.40;13.60;;;-1.90;99.90;;;;;;5084539;28;20441;-65
2021/12/22 09:08:09;;;;;;;26.15;13.88;;;-1.80;99.90;;;;;;5072943;28;20072;-65
2021/12/22 09:10:34;;;;;;;27.00;14.30;;;-1.80;99.90;;;;;;5072366;28;20423;-65
2021/12/22 09:13:00;;;;;;;26.48;13.23;;;-1.80;99.90;;;;;;5087840;28;20546;-65
2021/12/22 09:15:26;;;;;;;28.63;14.13;;;-1.70;99.90;;;;;;5053625;28;20036;-67
2021/12/22 09:17:51;;;;;;;24.73;13.65;;;-1.70;99.90;;;;;;5081387;28;20049;-64
2021/12/22 09:20:17;;;;;;;27.80;13.43;;;-1.70;99.90;;;;;;5083162;28;20055;-66
2021/12/22 09:22:43;;;;;;;29.25;14.50;;;-1.60;99.90;;;;;;5083737;28;20165;-65
2021/12/22 09:25:09;;;;;;;30.75;15.65;;;-1.60;99.90;;;;;;5082712;28;20040;-65
2021/12/22 09:27:35;;;;;;;31.55;14.73;;;-1.50;99.90;;;;;;5062167;28;20059;-66
2021/12/22 09:30:01;;;;;;;28.67;13.63;;;-1.50;99.90;;;;;;5085036;28;20044;-66
2021/12/22 09:32:27;;;;;;;29.52;13.55;;;-1.40;99.90;;;;;;5078037;28;20047;-65
2021/12/22 09:34:52;;;;;;;29.55;13.85;;;-1.30;99.90;;;;;;5086211;28;20450;-66
2021/12/22 09:37:18;;;;;;;30.33;14.10;;;-1.20;99.90;;;;;;5078119;28;20649;-65
2021/12/22 09:39:45;;;;;;;30.10;13.15;;;-1.00;99.90;;;;;;5075811;28;20068;-64
2021/12/22 09:42:11;;;;;;;30.45;13.70;;;-0.90;99.90;;;;;;5083288;28;20075;-64
2021/12/22 09:44:43;;;;;;;20.48;11.55;;;-0.70;99.90;;;;;;5087567;28;20509;-65
2021/12/22 09:47:10;;;;;;;26.58;12.23;;;-0.50;99.90;;;;;;5076217;28;20047;-64
2021/12/22 09:52:27;;;;;;;26.45;12.55;;;-0.20;99.90;;;;;;5081796;28;20092;-64
2021/12/22 09:54:55;;;;;;;27.52;12.88;;;-0.10;99.90;;;;;;5087312;28;20044;-65
2021/12/22 09:57:23;;;;;;;22.15;12.30;;;-0.10;99.90;;;;;;5085949;28;20082;-65
2021/12/22 09:59:51;;;;;;;24.05;12.10;;;-0.20;99.90;;;;;;5073182;28;20119;-65
2021/12/22 10:02:19;;;;;;;28.70;15.18;;;-0.30;99.90;;;;;;5086866;28;20052;-64
2021/12/22 10:04:46;;;;;;;27.17;13.32;;;-0.40;99.90;;;;;;5081776;28;20047;-66
2021/12/22 10:07:25;;;;;;;24.48;11.82;;;-0.40;99.90;;;;;;5083115;28;20123;-66
2021/12/22 10:09:52;;;;;;;26.38;12.85;;;-0.40;99.90;;;;;;5087496;28;20087;-66
2021/12/22 10:12:24;;;;;;;25.75;12.63;;;-0.50;99.90;;;;;;5089496;28;20048;-66
2021/12/22 10:14:54;;;;;;;25.20;12.50;;;-0.50;99.90;;;;;;5084918;28;20505;-66
2021/12/22 10:17:26;;;;;;;22.65;11.82;;;-0.50;99.90;;;;;;5085626;28;20057;-64
2021/12/22 10:19:55;;;;;;;25.98;11.98;;;-0.50;99.90;;;;;;5090004;28;20080;-66
2021/12/22 10:22:20;;;;;;;26.55;11.55;;;-0.50;99.90;;;;;;5096020;28;20052;-66
2021/12/22 10:24:46;;;;;;;28.85;12.07;;;-0.50;99.90;;;;;;5097815;28;20043;-67
2021/12/22 10:27:22;;;;;;;23.80;11.38;;;-0.50;99.90;;;;;;5083297;28;20049;-65
2021/12/22 10:29:48;;;;;;;23.50;12.18;;;-0.50;99.90;;;;;;5079512;28;20044;-65
2021/12/22 10:32:16;;;;;;;24.73;12.25;;;-0.50;99.90;;;;;;5087367;28;20047;-66
2021/12/22 10:34:55;;;;;;;29.55;14.48;;;-0.50;99.90;;;;;;5084731;28;20044;-66
2021/12/22 10:37:38;;;;;;;27.20;11.98;;;-0.50;99.90;;;;;;5082052;28;20048;-66
2021/12/22 10:40:24;;;;;;;22.23;11.98;;;-0.40;99.90;;;;;;5074077;28;20054;-66
2021/12/22 10:42:50;;;;;;;24.88;12.63;;;-0.40;99.90;;;;;;5076043;28;20502;-67
2021/12/22 10:45:17;;;;;;;23.27;11.65;;;-0.30;99.90;;;;;;5078103;28;20076;-65
2021/12/22 10:50:37;;;;;;;23.85;11.45;;;-0.30;99.90;;;;;;5078763;28;20466;-67
2021/12/22 10:53:04;;;;;;;22.35;11.30;;;-0.20;99.90;;;;;;5077874;28;20038;-67
2021/12/22 10:55:43;;;;;;;29.33;11.63;;;-0.20;99.90;;;;;;5079136;28;20044;-67
2021/12/22 10:58:23;;;;;;;25.27;12.75;;;-0.20;99.90;;;;;;5078383;28;20036;-67
2021/12/22 11:01:12;;;;;;;25.73;12.05;;;-0.20;99.90;;;;;;5074863;28;20124;-67
2021/12/22 11:03:53;;;;;;;34.27;15.30;;;-0.20;99.90;;;;;;5081819;28;20051;-67
2021/12/22 11:06:29;;;;;;;25.35;11.73;;;-0.10;99.90;;;;;;5079574;28;20148;-67
2021/12/22 11:09:15;;;;;;;26.27;11.85;;;-0.10;99.90;;;;;;5083794;28;20047;-67
2021/12/22 11:11:45;;;;;;;21.73;11.50;;;-0.10;99.90;;;;;;5099042;28;20083;-67
2021/12/22 11:14:19;;;;;;;24.65;11.80;;;-0.10;99.90;;;;;;5095494;28;20068;-66
2021/12/22 11:16:51;;;;;;;21.80;11.07;;;-0.10;99.90;;;;;;5079659;28;20494;-67
2021/12/22 11:19:16;;;;;;;21.20;11.50;;;-0.10;99.90;;;;;;5082984;28;20118;-68
2021/12/22 11:24:37;;;;;;;23.30;11.40;;;-0.10;99.90;;;;;;5083057;28;20056;-69
2021/12/22 11:27:04;;;;;;;23.08;12.15;;;-0.20;99.90;;;;;;5087867;28;20391;-67
2021/12/22 11:29:33;;;;;;;22.92;12.00;;;-0.20;99.90;;;;;;5080161;28;20066;-67
2021/12/22 11:32:03;;;;;;;22.25;12.43;;;-0.20;99.90;;;;;;5089391;28;20047;-68
2021/12/22 11:34:30;;;;;;;25.38;12.35;;;-0.20;99.90;;;;;;5072508;28;20127;-68
2021/12/22 11:36:56;;;;;;;22.35;11.30;;;-0.20;99.90;;;;;;5080339;28;20048;-66
2021/12/22 11:39:22;;;;;;;24.80;11.43;;;-0.20;99.90;;;;;;5081414;28;20101;-68
2021/12/22 11:41:58;;;;;;;24.80;12.15;;;-0.10;99.90;;;;;;5078202;28;20040;-67
2021/12/22 11:44:26;;;;;;;27.27;12.60;;;-0.20;99.90;;;;;;5075175;28;20124;-68
2021/12/22 11:46:57;;;;;;;;;;;-0.10;99.90;;;;;;5074677;28;20676;-69
2021/12/22 11:49:23;;;;;;;26.27;11.15;;;-0.10;99.90;;;;;;5077984;28;19927;-69
2021/12/22 11:51:49;;;;;;;25.83;12.70;;;-0.10;99.90;;;;;;5081275;28;20071;-69
2021/12/22 11:54:15;;;;;;;27.20;13.93;;;-0.10;99.90;;;;;;5076192;28;20084;-68
2021/12/22 11:56:41;;;;;;;24.33;11.60;;;-0.10;99.90;;;;;;5073885;28;20109;-68
2021/12/22 11:59:32;;;;;;;23.92;12.63;;;-0.10;99.90;;;;;;5076912;28;20040;-67
2021/12/22 12:02:25;;;;;;;20.30;11.15;;;-0.10;99.90;;;;;;5075935;28;20055;-68
2021/12/22 12:05:21;;;;;;;21.88;11.57;;;-0.20;99.90;;;;;;5074948;28;20379;-68
2021/12/22 12:08:17;;;;;;;25.45;12.07;;;-0.20;99.90;;;;;;5073176;28;20040;-68
2021/12/22 12:10:48;;;;;;;18.13;10.90;;;-0.20;99.90;;;;;;5074762;28;20592;-67
2021/12/22 12:13:23;;;;;;;19.13;10.82;;;-0.20;99.90;;;;;;5073471;28;20083;-67
2021/12/22 12:22:19;;;;;;;22.20;11.00;;;-0.20;99.90;;;;;;5078562;28;20050;-67
2021/12/22 12:25:11;;;;;;;23.20;11.75;;;-0.20;99.90;;;;;;5079521;28;20055;-67
2021/12/22 12:27:43;;;;;;;22.85;11.80;;;-0.20;99.90;;;;;;5071578;28;20528;-67
2021/12/22 12:30:15;;;;;;;20.70;11.13;;;-0.20;99.90;;;;;;5055566;28;20126;-68
2021/12/22 12:32:40;;;;;;;21.52;12.18;;;-0.20;99.90;;;;;;5079304;28;20052;-67
2021/12/22 12:35:26;;;;;;;21.10;11.30;;;-0.20;99.90;;;;;;5070096;28;20465;-68
2021/12/22 12:38:19;;;;;;;20.23;11.40;;;-0.20;99.90;;;;;;5079785;28;20099;-68
2021/12/22 12:46:24;;;;;;;21.00;10.80;;;-0.10;99.90;;;;;;5084692;28;20058;-68
2021/12/22 12:48:52;;;;;;;22.52;11.70;;;0.00;99.90;;;;;;5073982;28;20045;-67
2021/12/22 12:51:49;;;;;;;24.05;10.80;;;-0.10;99.90;;;;;;5083849;28;20040;-69
2021/12/22 12:54:22;;;;;;;22.05;11.43;;;-0.10;99.90;;;;;;5068647;28;20108;-68
2021/12/22 12:56:57;;;;;;;20.52;11.05;;;-0.10;99.90;;;;;;5074668;28;20439;-67
2021/12/22 12:59:27;;;;;;;24.40;11.73;;;-0.10;99.90;;;;;;5084138;28;20043;-66
2021/12/22 13:01:52;;;;;;;20.65;11.05;;;0.10;99.90;;;;;;5083324;28;20097;-68
2021/12/22 13:04:26;;;;;;;17.63;10.50;;;-0.10;99.90;;;;;;5076515;28;20036;-67
2021/12/22 13:07:06;;;;;;;21.00;11.60;;;-0.10;99.90;;;;;;5081879;28;20153;-67
2021/12/22 13:09:36;;;;;;;21.80;12.20;;;-0.10;99.90;;;;;;5078176;28;20075;-67